createdAt,value
2018-04-27T00:00:33.184Z,5.20
2018-04-27T00:03:01.178Z,5.30
2018-04-27T00:05:29.161Z,5.30
2018-04-27T00:07:57.162Z,5.30
2018-04-27T00:10:25.160Z,5.20
2018-04-27T00:12:53.174Z,5.20
2018-04-27T00:15:21.931Z,5.10
2018-04-27T00:17:49.927Z,5.10
2018-04-27T00:20:17.936Z,5.10
2018-04-27T00:22:46.689Z,5.10
2018-04-27T00:25:14.866Z,5.10
2018-04-27T00:27:42.865Z,5.20
2018-04-27T00:30:10.867Z,5.10
2018-04-27T00:32:38.875Z,5.10
2018-04-27T00:35:06.858Z,5.10
2018-04-27T00:37:34.899Z,5.10
2018-04-27T00:40:02.904Z,5.10
2018-04-27T00:42:31.671Z,5.00
2018-04-27T00:44:59.675Z,5.00
2018-04-27T00:47:27.670Z,5.00
2018-04-27T00:49:56.499Z,5.00
2018-04-27T00:52:25.328Z,5.00
2018-04-27T00:54:53.369Z,5.00
2018-04-27T00:57:21.440Z,5.00
2018-04-27T00:59:49.473Z,4.90
2018-04-27T01:02:17.520Z,4.90
2018-04-27T01:04:46.306Z,4.80
2018-04-27T01:07:14.410Z,4.70
2018-04-27T01:09:42.719Z,4.80
2018-04-27T01:12:10.767Z,4.80
2018-04-27T01:14:38.815Z,4.80
2018-04-27T01:17:06.846Z,4.80
2018-04-27T01:19:35.663Z,4.80
2018-04-27T01:22:04.450Z,4.90
2018-04-27T01:24:33.951Z,4.80
2018-04-27T01:27:01.984Z,4.80
2018-04-27T01:29:30.362Z,4.80
2018-04-27T01:31:58.400Z,4.80
2018-04-27T01:34:26.448Z,4.80
2018-04-27T01:36:54.500Z,4.70
2018-04-27T01:39:23.316Z,4.50
2018-04-27T01:41:52.120Z,4.50
2018-04-27T01:44:20.239Z,4.50
2018-04-27T01:46:48.286Z,4.50
2018-04-27T01:49:17.075Z,4.60
2018-04-27T01:51:46.363Z,4.40
2018-04-27T01:54:14.397Z,4.40
2018-04-27T01:56:42.441Z,4.40
2018-04-27T01:59:10.467Z,4.40
2018-04-27T02:01:38.519Z,4.40
2018-04-27T02:04:06.556Z,4.40
2018-04-27T02:06:35.527Z,4.30
2018-04-27T02:09:03.587Z,4.20
2018-04-27T02:11:32.375Z,4.30
2018-04-27T02:14:01.212Z,4.30
2018-04-27T02:16:30.003Z,4.30
2018-04-27T02:18:58.831Z,4.20
2018-04-27T02:21:26.856Z,4.10
2018-04-27T02:23:55.887Z,4.30
2018-04-27T02:26:24.703Z,4.30
2018-04-27T02:28:53.504Z,4.30
2018-04-27T02:31:22.319Z,4.30
2018-04-27T02:33:50.366Z,4.20
2018-04-27T02:36:18.413Z,4.30
2018-04-27T02:38:46.440Z,4.20
2018-04-27T02:41:14.479Z,4.10
2018-04-27T02:43:42.536Z,4.10
2018-04-27T02:46:10.568Z,4.10
2018-04-27T02:48:38.644Z,4.10
2018-04-27T02:51:06.687Z,4.00
2018-04-27T02:53:34.743Z,4.00
2018-04-27T02:56:03.684Z,3.90
2018-04-27T02:58:31.720Z,3.80
2018-04-27T03:00:59.751Z,4.00
2018-04-27T03:03:27.791Z,4.00
2018-04-27T03:05:55.830Z,3.90
2018-04-27T03:08:23.880Z,3.80
2018-04-27T03:10:52.688Z,3.80
2018-04-27T03:13:20.735Z,3.70
2018-04-27T03:15:50.267Z,3.70
2018-04-27T03:18:19.086Z,3.80
2018-04-27T03:20:47.880Z,3.80
2018-04-27T03:23:16.696Z,3.70
2018-04-27T03:25:44.739Z,3.60
2018-04-27T03:28:12.772Z,3.70
2018-04-27T03:30:40.811Z,3.70
2018-04-27T03:33:08.840Z,3.60
2018-04-27T03:35:36.884Z,3.70
2018-04-27T03:38:04.919Z,3.60
2018-04-27T03:40:32.959Z,3.60
2018-04-27T03:43:01.762Z,3.60
2018-04-27T03:45:30.580Z,3.70
2018-04-27T03:47:58.606Z,3.60
2018-04-27T03:50:26.659Z,3.70
2018-04-27T03:52:54.707Z,3.60
2018-04-27T03:55:22.747Z,3.60
2018-04-27T03:57:50.807Z,3.70
2018-04-27T04:00:30.731Z,3.70
2018-04-27T04:03:10.715Z,3.60
2018-04-27T04:05:39.515Z,3.50
2018-04-27T04:08:08.331Z,3.60
2018-04-27T04:10:37.114Z,3.50
2018-04-27T04:13:05.944Z,3.40
2018-04-27T04:15:33.976Z,3.30
2018-04-27T04:18:02.023Z,3.50
2018-04-27T04:20:30.079Z,3.30
2018-04-27T04:22:58.871Z,3.40
2018-04-27T04:25:27.787Z,3.40
2018-04-27T04:27:56.582Z,3.40
2018-04-27T04:30:25.399Z,3.40
2018-04-27T04:32:53.436Z,3.40
2018-04-27T04:35:21.505Z,3.50
2018-04-27T04:37:49.540Z,3.50
2018-04-27T04:40:17.587Z,3.50
2018-04-27T04:42:45.637Z,3.60
2018-04-27T04:45:13.700Z,3.60
2018-04-27T04:47:42.503Z,3.70
2018-04-27T04:50:10.519Z,3.60
2018-04-27T04:52:38.597Z,3.70
2018-04-27T04:55:06.623Z,3.80
2018-04-27T04:57:35.440Z,3.90
2018-04-27T05:00:04.267Z,4.00
2018-04-27T05:02:32.299Z,4.00
2018-04-27T05:05:00.347Z,4.20
2018-04-27T05:07:28.392Z,4.30
2018-04-27T05:09:56.435Z,4.40
2018-04-27T05:12:24.466Z,4.70
2018-04-27T05:14:53.278Z,4.70
2018-04-27T05:17:21.327Z,4.70
2018-04-27T05:19:54.904Z,4.80
2018-04-27T05:22:23.439Z,4.80
2018-04-27T05:24:51.463Z,4.90
2018-04-27T05:27:19.515Z,5.00
2018-04-27T05:29:47.618Z,5.20
2018-04-27T05:32:15.621Z,5.20
2018-04-27T05:34:44.495Z,5.20
2018-04-27T05:37:13.307Z,5.30
2018-04-27T05:39:41.339Z,5.20
2018-04-27T05:42:09.389Z,5.30
2018-04-27T05:44:38.052Z,5.40
2018-04-27T05:47:06.104Z,5.60
2018-04-27T05:49:34.163Z,4.20
2018-04-27T05:52:02.200Z,5.90
2018-04-27T05:54:30.247Z,6.00
2018-04-27T05:56:58.646Z,6.10
2018-04-27T05:59:26.692Z,6.30
2018-04-27T06:01:54.723Z,6.50
2018-04-27T06:04:22.779Z,6.60
2018-04-27T06:06:50.820Z,6.70
2018-04-27T06:09:18.860Z,6.80
2018-04-27T06:11:46.924Z,6.80
2018-04-27T06:14:14.943Z,6.90
2018-04-27T06:16:42.986Z,7.00
2018-04-27T06:19:11.046Z,7.10
2018-04-27T06:21:39.079Z,7.30
2018-04-27T06:24:07.102Z,7.50
2018-04-27T06:26:35.911Z,7.70
2018-04-27T06:29:04.704Z,7.70
2018-04-27T06:31:33.515Z,7.80
2018-04-27T06:34:02.303Z,8.00
2018-04-27T06:36:31.133Z,8.10
2018-04-27T06:38:59.167Z,8.10
2018-04-27T06:41:27.220Z,8.30
2018-04-27T06:43:55.275Z,8.40
2018-04-27T06:46:24.076Z,8.70
2018-04-27T06:48:52.894Z,8.60
2018-04-27T06:51:20.948Z,8.60
2018-04-27T06:53:48.991Z,8.60
2018-04-27T06:56:17.035Z,8.90
2018-04-27T06:58:45.088Z,9.00
2018-04-27T07:01:13.134Z,9.10
2018-04-27T07:03:41.170Z,9.40
2018-04-27T07:06:09.251Z,9.50
2018-04-27T07:08:38.151Z,9.70
2018-04-27T07:11:06.591Z,9.60
2018-04-27T07:13:34.619Z,9.80
2018-04-27T07:16:02.701Z,9.90
2018-04-27T07:18:30.747Z,10.10
2018-04-27T07:20:58.830Z,10.20
2018-04-27T07:23:26.848Z,10.30
2018-04-27T07:25:54.939Z,10.60
2018-04-27T07:28:23.003Z,10.80
2018-04-27T07:30:51.069Z,11.00
2018-04-27T07:33:19.268Z,11.20
2018-04-27T07:35:47.579Z,11.20
2018-04-27T07:38:15.636Z,11.10
2018-04-27T07:40:43.666Z,11.40
2018-04-27T07:43:12.503Z,11.60
2018-04-27T07:45:40.535Z,11.60
2018-04-27T07:48:08.586Z,11.90
2018-04-27T07:50:36.656Z,12.20
2018-04-27T07:53:04.692Z,12.40
2018-04-27T07:55:32.748Z,12.70
2018-04-27T07:58:00.782Z,12.90
2018-04-27T08:00:29.605Z,13.20
2018-04-27T08:02:57.646Z,13.10
2018-04-27T08:05:25.695Z,13.50
2018-04-27T08:07:53.765Z,13.70
2018-04-27T08:10:21.808Z,13.80
2018-04-27T08:12:50.661Z,14.10
2018-04-27T08:15:18.695Z,14.00
2018-04-27T08:17:47.515Z,14.20
2018-04-27T08:20:19.347Z,14.10
2018-04-27T08:22:47.410Z,14.20
2018-04-27T08:25:15.452Z,14.30
2018-04-27T08:27:43.524Z,14.30
2018-04-27T08:30:12.405Z,14.50
2018-04-27T08:32:40.408Z,14.40
2018-04-27T08:35:09.224Z,14.60
2018-04-27T08:37:38.019Z,14.70
2018-04-27T08:40:06.835Z,14.80
2018-04-27T08:42:34.879Z,14.70
2018-04-27T08:45:02.931Z,15.00
2018-04-27T08:47:30.988Z,15.20
2018-04-27T08:49:59.020Z,15.20
2018-04-27T08:52:28.092Z,15.30
2018-04-27T08:54:56.131Z,15.30
2018-04-27T08:57:24.196Z,15.50
2018-04-27T08:59:52.435Z,15.50
2018-04-27T09:02:20.499Z,15.50
2018-04-27T09:04:48.524Z,15.60
2018-04-27T09:07:16.583Z,15.40
2018-04-27T09:09:44.635Z,15.70
2018-04-27T09:12:12.676Z,15.90
2018-04-27T09:14:40.731Z,16.10
2018-04-27T09:17:08.775Z,16.20
2018-04-27T09:19:37.599Z,16.40
2018-04-27T09:22:06.663Z,16.30
2018-04-27T09:24:34.847Z,16.30
2018-04-27T09:27:02.904Z,16.40
2018-04-27T09:29:30.939Z,16.60
2018-04-27T09:31:58.998Z,16.70
2018-04-27T09:34:27.038Z,16.70
2018-04-27T09:36:55.859Z,16.70
2018-04-27T09:39:24.831Z,16.60
2018-04-27T09:41:52.896Z,16.80
2018-04-27T09:44:20.927Z,16.80
2018-04-27T09:46:49.050Z,16.90
2018-04-27T09:49:17.135Z,16.80
2018-04-27T09:51:45.168Z,17.20
2018-04-27T09:54:13.978Z,17.40
2018-04-27T09:56:42.020Z,17.40
2018-04-27T09:59:10.084Z,17.50
2018-04-27T10:01:38.117Z,17.40
2018-04-27T10:04:06.191Z,17.50
2018-04-27T10:06:35.013Z,17.70
2018-04-27T10:09:03.050Z,17.70
2018-04-27T10:11:31.105Z,17.90
2018-04-27T10:13:59.139Z,17.90
2018-04-27T10:16:27.190Z,17.70
2018-04-27T10:18:55.239Z,17.90
2018-04-27T10:21:23.304Z,18.10
2018-04-27T10:23:52.122Z,18.20
2018-04-27T10:26:22.401Z,18.10
2018-04-27T10:28:50.459Z,18.30
2018-04-27T10:31:18.878Z,18.40
2018-04-27T10:33:46.956Z,18.60
2018-04-27T10:36:14.992Z,18.50
2018-04-27T10:38:43.807Z,18.70
2018-04-27T10:41:11.839Z,18.60
2018-04-27T10:43:39.895Z,18.90
2018-04-27T10:46:07.943Z,19.00
2018-04-27T10:48:35.991Z,19.00
2018-04-27T10:51:04.071Z,19.20
2018-04-27T10:53:32.113Z,19.30
2018-04-27T10:56:00.177Z,19.40
2018-04-27T10:58:28.987Z,19.50
2018-04-27T11:00:57.082Z,19.40
2018-04-27T11:03:25.172Z,19.70
2018-04-27T11:05:53.960Z,19.90
2018-04-27T11:08:22.007Z,19.80
2018-04-27T11:10:50.071Z,19.80
2018-04-27T11:13:18.127Z,20.00
2018-04-27T11:15:46.169Z,19.80
2018-04-27T11:18:14.990Z,20.40
2018-04-27T11:20:43.027Z,20.30
2018-04-27T11:23:11.112Z,20.40
2018-04-27T11:25:39.147Z,20.30
2018-04-27T11:28:07.208Z,20.40
2018-04-27T11:30:36.015Z,20.80
2018-04-27T11:33:04.831Z,20.90
2018-04-27T11:35:32.903Z,20.80
2018-04-27T11:38:01.740Z,20.70
2018-04-27T11:40:29.776Z,20.60
2018-04-27T11:42:57.832Z,20.90
2018-04-27T11:45:25.894Z,21.30
2018-04-27T11:47:53.950Z,21.40
2018-04-27T11:50:22.396Z,21.60
2018-04-27T11:52:50.447Z,21.60
2018-04-27T11:55:18.518Z,21.60
2018-04-27T11:57:46.547Z,21.60
2018-04-27T12:00:14.611Z,21.40
2018-04-27T12:02:42.668Z,21.70
2018-04-27T12:05:10.782Z,21.50
2018-04-27T12:07:38.815Z,21.70
2018-04-27T12:10:06.867Z,22.10
2018-04-27T12:12:34.927Z,22.10
2018-04-27T12:15:02.976Z,22.30
2018-04-27T12:17:31.873Z,22.90
2018-04-27T12:19:59.924Z,22.80
2018-04-27T12:22:27.983Z,23.00
2018-04-27T12:24:56.031Z,23.00
2018-04-27T12:27:24.856Z,23.00
2018-04-27T12:29:52.903Z,22.90
2018-04-27T12:32:21.751Z,22.90
2018-04-27T12:34:49.811Z,22.80
2018-04-27T12:37:17.856Z,23.20
2018-04-27T12:39:45.932Z,23.00
2018-04-27T12:42:13.973Z,23.30
2018-04-27T12:44:42.047Z,23.60
2018-04-27T12:47:10.096Z,23.70
2018-04-27T12:49:38.159Z,23.60
2018-04-27T12:52:06.207Z,23.90
2018-04-27T12:54:34.267Z,23.80
2018-04-27T12:57:02.335Z,24.20
2018-04-27T12:59:30.375Z,24.20
2018-04-27T13:01:58.439Z,24.00
2018-04-27T13:04:26.484Z,24.10
2018-04-27T13:06:54.556Z,24.40
2018-04-27T13:09:22.606Z,24.40
2018-04-27T13:11:50.671Z,24.40
2018-04-27T13:14:19.488Z,24.00
2018-04-27T13:16:47.559Z,24.00
2018-04-27T13:19:15.632Z,24.30
2018-04-27T13:21:44.467Z,24.90
2018-04-27T13:24:12.491Z,24.90
2018-04-27T13:26:40.636Z,25.30
2018-04-27T13:29:09.439Z,24.90
2018-04-27T13:31:37.473Z,24.80
2018-04-27T13:34:05.540Z,24.50
2018-04-27T13:36:33.560Z,24.70
2018-04-27T13:39:02.501Z,25.20
2018-04-27T13:41:30.538Z,25.10
2018-04-27T13:43:58.591Z,25.00
2018-04-27T13:46:26.631Z,25.00
2018-04-27T13:48:54.697Z,25.50
2018-04-27T13:51:23.580Z,25.50
2018-04-27T13:53:51.652Z,25.40
2018-04-27T13:56:19.699Z,25.80
2018-04-27T13:58:47.757Z,25.70
2018-04-27T14:01:16.583Z,26.10
2018-04-27T14:03:44.700Z,26.10
2018-04-27T14:06:12.776Z,26.10
2018-04-27T14:08:40.823Z,26.00
2018-04-27T14:11:08.974Z,25.80
2018-04-27T14:13:36.963Z,26.30
2018-04-27T14:16:05.026Z,26.70
2018-04-27T14:18:33.206Z,26.90
2018-04-27T14:21:01.277Z,26.70
2018-04-27T14:23:29.336Z,26.70
2018-04-27T14:25:57.373Z,26.70
2018-04-27T14:28:25.446Z,26.90
2018-04-27T14:30:53.512Z,27.00
2018-04-27T14:33:21.579Z,26.80
2018-04-27T14:35:49.656Z,27.20
2018-04-27T14:38:17.696Z,26.90
2018-04-27T14:40:45.762Z,26.90
2018-04-27T14:43:13.799Z,26.70
2018-04-27T14:45:42.619Z,27.00
2018-04-27T14:48:10.676Z,27.00
2018-04-27T14:50:39.519Z,27.70
2018-04-27T14:53:07.592Z,27.70
2018-04-27T14:55:35.647Z,28.00
2018-04-27T14:58:04.483Z,27.50
2018-04-27T15:00:32.560Z,27.40
2018-04-27T15:03:00.627Z,27.50
2018-04-27T15:05:29.440Z,27.60
2018-04-27T15:07:57.495Z,27.50
2018-04-27T15:10:26.307Z,27.60
2018-04-27T15:12:55.441Z,27.50
2018-04-27T15:15:23.509Z,27.50
2018-04-27T15:17:51.564Z,27.70
2018-04-27T15:20:20.392Z,27.90
2018-04-27T15:22:48.440Z,27.80
2018-04-27T15:25:16.503Z,27.70
2018-04-27T15:27:44.556Z,28.00
2018-04-27T15:30:12.616Z,28.00
2018-04-27T15:32:41.419Z,27.20
2018-04-27T15:35:11.152Z,27.00
2018-04-27T15:37:39.964Z,27.20
2018-04-27T15:40:08.015Z,27.10
2018-04-27T15:42:36.063Z,27.40
2018-04-27T15:45:04.103Z,27.40
2018-04-27T15:47:33.067Z,27.20
2018-04-27T15:50:01.112Z,27.10
2018-04-27T15:52:29.171Z,27.20
2018-04-27T15:54:57.966Z,26.90
2018-04-27T15:57:26.826Z,27.00
2018-04-27T15:59:54.853Z,27.00
2018-04-27T16:02:23.688Z,26.60
2018-04-27T16:04:51.859Z,26.60
2018-04-27T16:07:19.900Z,26.70
2018-04-27T16:09:47.959Z,27.00
2018-04-27T16:12:15.999Z,27.00
2018-04-27T16:14:46.105Z,26.20
2018-04-27T16:17:15.011Z,26.20
2018-04-27T16:19:44.587Z,26.40
2018-04-27T16:22:12.661Z,26.40
2018-04-27T16:24:40.708Z,26.70
2018-04-27T16:27:09.863Z,26.70
2018-04-27T16:29:37.900Z,26.70
2018-04-27T16:32:06.095Z,26.10
2018-04-27T16:34:34.903Z,25.00
2018-04-27T16:37:03.773Z,24.60
2018-04-27T16:39:32.639Z,24.50
2018-04-27T16:42:00.770Z,24.10
2018-04-27T16:44:28.782Z,23.90
2018-04-27T16:46:56.826Z,23.80
2018-04-27T16:49:24.899Z,23.90
2018-04-27T16:51:52.948Z,23.70
2018-04-27T16:54:21.017Z,23.40
2018-04-27T16:56:49.828Z,23.00
2018-04-27T16:59:17.892Z,22.90
2018-04-27T17:01:46.716Z,22.80
2018-04-27T17:04:14.805Z,22.70
2018-04-27T17:06:43.024Z,22.80
2018-04-27T17:09:11.075Z,22.70
2018-04-27T17:11:39.139Z,22.50
2018-04-27T17:14:07.959Z,22.40
2018-04-27T17:16:36.021Z,22.40
2018-04-27T17:19:04.832Z,22.30
2018-04-27T17:21:32.908Z,22.20
2018-04-27T17:24:01.741Z,21.80
2018-04-27T17:26:29.817Z,21.70
2018-04-27T17:28:57.867Z,21.70
2018-04-27T17:31:25.928Z,21.60
2018-04-27T17:33:54.000Z,21.40
2018-04-27T17:36:22.047Z,21.20
2018-04-27T17:38:50.144Z,21.00
2018-04-27T17:41:18.183Z,20.80
2018-04-27T17:43:46.248Z,20.70
2018-04-27T17:46:14.301Z,20.60
2018-04-27T17:48:42.353Z,20.50
2018-04-27T17:51:11.204Z,20.20
2018-04-27T17:53:39.248Z,20.10
2018-04-27T17:56:07.312Z,20.00
2018-04-27T17:58:36.138Z,19.70
2018-04-27T18:01:04.215Z,19.70
2018-04-27T18:03:32.256Z,19.70
2018-04-27T18:06:00.312Z,19.60
2018-04-27T18:08:28.362Z,19.50
2018-04-27T18:10:57.196Z,19.10
2018-04-27T18:13:25.252Z,19.10
2018-04-27T18:15:54.068Z,18.90
2018-04-27T18:18:22.143Z,18.90
2018-04-27T18:20:50.212Z,18.90
2018-04-27T18:23:19.040Z,18.50
2018-04-27T18:25:47.089Z,18.40
2018-04-27T18:28:15.150Z,18.40
2018-04-27T18:30:43.187Z,18.30
2018-04-27T18:33:11.307Z,18.10
2018-04-27T18:35:39.425Z,18.00
2018-04-27T18:38:07.414Z,17.90
2018-04-27T18:40:36.245Z,17.70
2018-04-27T18:43:04.284Z,17.70
2018-04-27T18:45:32.338Z,17.60
2018-04-27T18:48:00.385Z,17.40
2018-04-27T18:50:29.239Z,17.20
2018-04-27T18:52:57.272Z,17.10
2018-04-27T18:55:26.102Z,17.20
2018-04-27T18:57:54.180Z,17.20
2018-04-27T19:00:26.991Z,17.10
2018-04-27T19:02:55.051Z,17.00
2018-04-27T19:05:23.108Z,17.00
2018-04-27T19:07:51.950Z,16.90
2018-04-27T19:10:20.007Z,16.90
2018-04-27T19:12:48.907Z,16.60
2018-04-27T19:15:16.973Z,16.50
2018-04-27T19:17:45.036Z,16.60
2018-04-27T19:20:13.079Z,16.60
2018-04-27T19:22:43.050Z,16.60
2018-04-27T19:25:11.084Z,16.50
2018-04-27T19:27:39.138Z,16.50
2018-04-27T19:30:07.946Z,16.20
2018-04-27T19:32:36.773Z,16.00
2018-04-27T19:35:04.828Z,16.00
2018-04-27T19:37:33.699Z,15.80
2018-04-27T19:40:01.736Z,15.80
2018-04-27T19:42:29.774Z,15.70
2018-04-27T19:44:57.843Z,15.70
2018-04-27T19:47:25.916Z,15.60
2018-04-27T19:49:53.985Z,15.60
2018-04-27T19:52:22.080Z,15.50
2018-04-27T19:54:50.476Z,15.50
2018-04-27T19:57:18.539Z,15.40
2018-04-27T19:59:47.334Z,15.30
2018-04-27T20:02:15.394Z,15.30
2018-04-27T20:04:43.450Z,15.20
2018-04-27T20:07:11.495Z,15.10
2018-04-27T20:09:40.571Z,15.10
2018-04-27T20:12:09.384Z,15.00
2018-04-27T20:14:37.474Z,14.90
2018-04-27T20:17:06.264Z,14.90
2018-04-27T20:19:37.989Z,14.90
2018-04-27T20:22:11.777Z,14.90
2018-04-27T20:24:39.774Z,14.90
2018-04-27T20:27:07.822Z,14.80
2018-04-27T20:29:36.688Z,14.70
2018-04-27T20:32:05.457Z,14.60
2018-04-27T20:34:33.496Z,14.60
2018-04-27T20:37:01.922Z,14.40
2018-04-27T20:39:30.720Z,14.30
2018-04-27T20:41:59.577Z,14.20
2018-04-27T20:44:27.700Z,14.10
2018-04-27T20:46:56.536Z,14.20
2018-04-27T20:49:24.593Z,14.20
2018-04-27T20:51:52.634Z,14.20
2018-04-27T20:54:20.695Z,14.30
2018-04-27T20:56:49.496Z,14.20
2018-04-27T20:59:19.330Z,14.20
2018-04-27T21:01:47.366Z,14.10
2018-04-27T21:04:16.194Z,14.10
2018-04-27T21:06:44.236Z,14.10
2018-04-27T21:09:12.291Z,14.10
2018-04-27T21:11:40.339Z,14.00
2018-04-27T21:14:08.389Z,14.00
2018-04-27T21:16:37.206Z,13.90
2018-04-27T21:19:05.243Z,13.90
2018-04-27T21:21:33.295Z,14.00
2018-04-27T21:24:01.338Z,13.90
2018-04-27T21:26:29.383Z,13.70
2018-04-27T21:28:57.427Z,13.80
2018-04-27T21:31:25.496Z,13.80
2018-04-27T21:33:54.755Z,13.70
2018-04-27T21:36:25.603Z,13.70
2018-04-27T21:39:12.563Z,13.70
2018-04-27T21:41:58.323Z,13.70
2018-04-27T21:47:25.500Z,13.50
2018-04-27T21:49:54.476Z,13.50
2018-04-27T21:52:35.090Z,13.50
2018-04-27T21:55:03.901Z,13.50
2018-04-27T22:00:22.478Z,13.60
2018-04-27T22:03:02.339Z,13.60
2018-04-27T22:05:33.682Z,13.80
2018-04-27T22:08:04.552Z,13.70
2018-04-27T22:10:33.367Z,13.80
2018-04-27T22:13:01.408Z,13.80
2018-04-27T22:15:30.398Z,13.90
2018-04-27T22:17:59.372Z,14.00
2018-04-27T22:20:32.099Z,14.00
2018-04-27T22:23:00.126Z,14.00
2018-04-27T22:25:28.931Z,14.00
2018-04-27T22:28:02.807Z,13.90
2018-04-27T22:30:33.762Z,14.00
2018-04-27T22:36:06.928Z,14.00
2018-04-27T22:38:41.362Z,13.90
2018-04-27T22:41:11.688Z,13.90
2018-04-27T22:43:39.735Z,13.80
2018-04-27T22:46:14.959Z,13.80
2018-04-27T22:48:44.805Z,13.80
2018-04-27T22:51:13.666Z,13.80
2018-04-27T22:53:44.991Z,13.80
2018-04-27T22:56:30.628Z,13.70
2018-04-27T22:58:59.460Z,13.80
2018-04-27T23:01:27.638Z,13.70
2018-04-27T23:04:04.302Z,13.80
2018-04-27T23:06:33.099Z,13.60
2018-04-27T23:09:02.027Z,13.70
2018-04-27T23:11:30.068Z,13.60
2018-04-27T23:16:51.599Z,13.50
2018-04-27T23:19:20.419Z,13.60
2018-04-27T23:22:04.122Z,13.60
2018-04-27T23:24:39.471Z,13.50
2018-04-27T23:27:08.286Z,13.40
2018-04-27T23:29:36.331Z,13.40
2018-04-27T23:32:04.388Z,13.40
2018-04-27T23:34:32.417Z,13.40
2018-04-27T23:37:01.243Z,13.40
2018-04-27T23:39:29.283Z,13.40
2018-04-27T23:41:57.331Z,13.50
2018-04-27T23:44:25.394Z,13.50
2018-04-27T23:46:54.703Z,13.30
2018-04-27T23:49:23.613Z,13.20
2018-04-27T23:51:51.663Z,13.10
2018-04-27T23:54:19.711Z,13.30
2018-04-27T23:56:49.503Z,13.30
2018-04-27T23:59:21.397Z,13.40
